Time;durP1;ratioP1;P1;durP2;ratioP2;P2;SDS_P1;SDS_P2;PMS_P1;PMS_P2;Temp;Humidity;BMP_temperature;BMP_pressure;BME280_temperature;BME280_humidity;BME280_pressure;Samples;Min_cycle;Max_cycle;Signal;HPM_P1;HPM_P2
2021/03/26 00:01:41;;;;;;;;;;;;;;;-2.38;63.60;96254.97;1702836;84;20144;-66
2021/03/26 00:04:11;;;;;;;;;;;;;;;-2.28;63.55;96256.70;1702791;84;20402;-67
2021/03/26 00:06:42;;;;;;;;;;;;;;;-2.21;63.36;96252.27;1702953;84;20160;-67
2021/03/26 00:09:13;;;;;;;;;;;;;;;-2.21;63.36;96248.38;1703043;84;20140;-66
2021/03/26 00:11:41;;;;;;;;;;;;;;;-2.32;64.01;96252.63;1703197;84;20143;-66
2021/03/26 00:14:08;;;;;;;;;;;;;;;-2.33;63.55;96253.46;1702989;84;20132;-66
2021/03/26 00:16:36;;;;;;;;;;;;;;;-2.40;63.02;96250.60;1702938;84;20128;-67
2021/03/26 00:19:05;;;;;;;;;;;;;;;-2.44;64.55;96256.48;1702841;84;20442;-67
2021/03/26 00:21:32;;;;;;;;;;;;;;;-2.55;65.88;96256.84;1703486;84;20153;-66
2021/03/26 00:23:59;;;;;;;;;;;;;;;-2.66;64.80;96246.94;1702965;84;20136;-67
2021/03/26 00:26:27;;;;;;;;;;;;;;;-2.57;64.53;96250.34;1702941;84;20442;-67
2021/03/26 00:28:56;;;;;;;;;;;;;;;-2.47;64.42;96252.87;1702979;84;20144;-67
2021/03/26 00:31:24;;;;;;;;;;;;;;;-2.55;64.85;96247.38;1702965;84;20132;-67
2021/03/26 00:33:51;;;;;;;;;;;;;;;-2.74;65.17;96250.91;1703068;84;20433;-67
2021/03/26 00:36:18;;;;;;;;;;;;;;;-2.73;65.33;96255.23;1702780;84;20140;-67
2021/03/26 00:38:45;;;;;;;;;;;;;;;-2.66;64.91;96251.23;1703119;84;20141;-67
2021/03/26 00:41:13;;;;;;;;;;;;;;;-2.74;66.77;96245.73;1702910;84;20124;-67
2021/03/26 00:43:40;;;;;;;;;;;;;;;-2.81;66.82;96247.58;1702985;84;20157;-67
2021/03/26 00:46:07;;;;;;;;;;;;;;;-2.79;66.80;96249.83;1702998;84;20144;-67
2021/03/26 00:48:35;;;;;;;;;;;;;;;-2.72;66.22;96248.37;1702313;84;20144;-67
2021/03/26 00:51:03;;;;;;;;;;;;;;;-2.65;65.36;96243.94;1683733;85;20127;-67
2021/03/26 00:53:33;;;;;;;;;;;;;;;-2.57;65.70;96238.72;1714266;84;20132;-67
2021/03/26 00:56:01;;;;;;;;;;;;;;;-2.66;65.14;96237.90;1685210;85;20155;-67
2021/03/26 00:58:30;;;;;;;;;;;;;;;-2.80;67.07;96251.91;1696214;85;20228;-67
2021/03/26 01:00:58;;;;;;;;;;;;;;;-2.75;65.73;96238.78;1719608;83;20400;-67
2021/03/26 01:03:28;;;;;;;;;;;;;;;-2.70;66.13;96238.58;1725184;83;20138;-67
2021/03/26 01:05:59;;;;;;;;;;;;;;;-2.72;66.11;96240.62;1724996;83;20175;-67
2021/03/26 01:08:27;;;;;;;;;;;;;;;-2.84;65.62;96241.00;1725011;83;20134;-67
2021/03/26 01:11:00;;;;;;;;;;;;;;;-2.85;65.79;96231.09;1724791;83;20146;-66
2021/03/26 01:13:27;;;;;;;;;;;;;;;-2.73;65.40;96234.99;1725269;83;20142;-67
2021/03/26 01:15:54;;;;;;;;;;;;;;;-2.80;65.02;96228.67;1724919;83;20154;-67
2021/03/26 01:18:29;;;;;;;;;;;;;;;-2.83;65.20;96233.30;1725057;83;20233;-67
2021/03/26 01:20:59;;;;;;;;;;;;;;;-2.84;65.30;96237.13;1725383;83;20142;-67
2021/03/26 01:23:29;;;;;;;;;;;;;;;-2.82;65.30;96230.33;1725164;83;20133;-67
2021/03/26 01:26:01;;;;;;;;;;;;;;;-2.73;65.07;96233.70;1724926;83;20407;-67
2021/03/26 01:28:47;;;;;;;;;;;;;;;-2.79;65.72;96235.63;1725045;83;20126;-67
2021/03/26 01:31:20;;;;;;;;;;;;;;;-2.78;65.18;96233.92;1724567;83;20146;-67
2021/03/26 01:33:48;;;;;;;;;;;;;;;-2.95;67.32;96240.55;1724793;83;20142;-67
2021/03/26 01:36:17;;;;;;;;;;;;;;;-3.26;67.70;96237.00;1725330;83;20229;-67
2021/03/26 01:38:45;;;;;;;;;;;;;;;-3.23;66.78;96242.30;1725232;83;20150;-67
2021/03/26 01:41:25;;;;;;;;;;;;;;;-3.34;68.62;96244.81;1724974;83;20228;-67
2021/03/26 01:43:53;;;;;;;;;;;;;;;-3.35;67.30;96247.81;1725297;83;20129;-67
2021/03/26 01:46:22;;;;;;;;;;;;;;;-3.24;67.12;96247.00;1725112;83;20300;-67
2021/03/26 01:48:54;;;;;;;;;;;;;;;-3.18;67.44;96247.66;1722419;83;20147;-67
2021/03/26 01:51:26;;;;;;;;;;;;;;;-3.27;68.05;96246.86;1719588;83;20500;-67
2021/03/26 01:53:55;;;;;;;;;;;;;;;-3.24;67.86;96243.13;1690777;83;20142;-67
2021/03/26 01:56:24;;;;;;;;;;;;;;;-3.20;68.10;96246.70;1719779;83;20246;-67
2021/03/26 01:58:53;;;;;;;;;;;;;;;-3.18;67.33;96247.25;1715504;83;20218;-67
2021/03/26 02:01:24;;;;;;;;;;;;;;;-3.04;66.98;96250.45;1719406;83;20248;-67
2021/03/26 02:03:58;;;;;;;;;;;;;;;-3.04;67.66;96246.59;1719435;83;20135;-67
2021/03/26 02:06:29;;;;;;;;;;;;;;;-3.18;66.83;96251.54;1719848;83;20138;-67
2021/03/26 02:09:03;;;;;;;;;;;;;;;-3.23;67.05;96246.58;1719447;83;20226;-67
2021/03/26 02:11:57;;;;;;;;;;;;;;;-3.24;67.15;96246.12;1719510;83;20237;-67
2021/03/26 02:14:33;;;;;;;;;;;;;;;-3.30;67.84;96242.45;1719859;83;20558;-67
2021/03/26 02:17:01;;;;;;;;;;;;;;;-3.23;67.09;96248.75;1719635;83;20147;-67
2021/03/26 02:19:46;;;;;;;;;;;;;;;-3.18;67.37;96248.95;1718460;83;20233;-67
2021/03/26 02:22:17;;;;;;;;;;;;;;;-3.23;68.57;96253.91;1719358;83;20289;-67
2021/03/26 02:24:47;;;;;;;;;;;;;;;-3.26;69.18;96254.66;1719535;83;20265;-67
2021/03/26 02:27:18;;;;;;;;;;;;;;;-3.26;68.24;96251.20;1719777;83;20170;-67
2021/03/26 02:29:46;;;;;;;;;;;;;;;-3.20;68.13;96254.07;1718828;83;20167;-67
2021/03/26 02:32:25;;;;;;;;;;;;;;;-3.22;67.44;96248.37;1718628;83;20479;-67
2021/03/26 02:35:23;;;;;;;;;;;;;;;-3.12;67.38;96253.99;1716824;83;20253;-67
2021/03/26 02:38:05;;;;;;;;;;;;;;;-3.13;68.07;96249.63;1719855;83;20131;-67
2021/03/26 02:40:36;;;;;;;;;;;;;;;-3.21;67.15;96252.70;1719754;83;20520;-67
2021/03/26 02:43:41;;;;;;;;;;;;;;;-3.21;66.91;96255.28;1689729;83;20404;-67
2021/03/26 02:46:17;;;;;;;;;;;;;;;-3.37;68.43;96270.08;1719537;83;20126;-67
2021/03/26 02:49:05;;;;;;;;;;;;;;;-3.66;69.74;96270.02;1717140;83;20159;-67
2021/03/26 02:51:39;;;;;;;;;;;;;;;-3.79;69.42;96263.41;1718502;84;20134;-67
2021/03/26 02:54:19;;;;;;;;;;;;;;;-3.79;70.15;96270.27;1713692;84;20222;-67
2021/03/26 02:57:06;;;;;;;;;;;;;;;-3.77;70.34;96269.52;1673985;84;20396;-67
2021/03/26 02:59:47;;;;;;;;;;;;;;;-3.62;69.91;96269.77;1703176;83;20146;-67
2021/03/26 03:02:16;;;;;;;;;;;;;;;-3.51;69.64;96272.01;1695459;85;20178;-67
2021/03/26 03:05:11;;;;;;;;;;;;;;;-3.39;69.49;96269.53;1695056;84;20398;-67
2021/03/26 03:07:42;;;;;;;;;;;;;;;-3.55;69.10;96270.53;1695324;85;20134;-67
2021/03/26 03:10:27;;;;;;;;;;;;;;;-3.68;68.65;96271.63;1680383;84;20144;-67
2021/03/26 03:12:58;;;;;;;;;;;;;;;-3.70;69.35;96281.02;1695791;83;20176;-67
2021/03/26 03:15:29;;;;;;;;;;;;;;;-3.60;69.22;96272.89;1666101;86;20151;-67
2021/03/26 03:18:09;;;;;;;;;;;;;;;-3.70;70.82;96278.03;1654545;86;20151;-66
2021/03/26 03:20:43;;;;;;;;;;;;;;;-3.71;70.02;96276.66;1695454;85;20140;-66
2021/03/26 03:23:15;;;;;;;;;;;;;;;-3.68;69.80;96272.92;1695480;85;20163;-67
2021/03/26 03:26:06;;;;;;;;;;;;;;;-3.73;69.97;96279.56;1687104;85;20131;-67
2021/03/26 03:28:40;;;;;;;;;;;;;;;-3.66;69.86;96275.58;1673406;85;20150;-67
2021/03/26 03:31:25;;;;;;;;;;;;;;;-3.57;69.69;96273.03;1692170;85;20146;-67
2021/03/26 03:33:56;;;;;;;;;;;;;;;-3.52;70.29;96272.83;1673552;85;20127;-67
2021/03/26 03:36:26;;;;;;;;;;;;;;;-3.51;69.70;96279.75;1695294;84;20138;-67
2021/03/26 03:39:07;;;;;;;;;;;;;;;-3.62;70.17;96280.96;1695195;85;20162;-67
2021/03/26 03:41:55;;;;;;;;;;;;;;;-3.52;69.80;96278.41;1692949;85;20151;-67
2021/03/26 03:44:46;;;;;;;;;;;;;;;-3.47;69.44;96279.50;1695251;85;20138;-67
2021/03/26 03:47:32;;;;;;;;;;;;;;;-3.52;70.26;96278.41;1695130;85;20146;-67
2021/03/26 03:50:27;;;;;;;;;;;;;;;-3.78;69.83;96286.20;1699848;84;20130;-67
2021/03/26 03:53:01;;;;;;;;;;;;;;;-3.78;69.81;96284.53;1703053;84;20173;-67
2021/03/26 03:55:35;;;;;;;;;;;;;;;-3.63;70.33;96289.49;1703226;84;20140;-66
2021/03/26 03:58:07;;;;;;;;;;;;;;;-3.59;69.58;96291.41;1699332;84;20135;-67
2021/03/26 04:01:00;;;;;;;;;;;;;;;-3.70;70.88;96290.92;1729367;82;20252;-67
2021/03/26 04:03:32;;;;;;;;;;;;;;;-3.86;70.24;96297.44;1700141;83;20170;-67
2021/03/26 04:06:09;;;;;;;;;;;;;;;-3.93;70.61;96292.83;1709848;84;20146;-67
2021/03/26 04:08:43;;;;;;;;;;;;;;;-4.06;70.64;96298.17;1688892;84;20136;-67
2021/03/26 04:11:17;;;;;;;;;;;;;;;-3.99;70.77;96300.25;1714962;83;20160;-67
2021/03/26 04:13:48;;;;;;;;;;;;;;;-3.93;70.70;96294.11;1714994;83;20125;-67
2021/03/26 04:16:19;;;;;;;;;;;;;;;-3.94;71.27;96292.33;1715077;84;20168;-67
2021/03/26 04:18:53;;;;;;;;;;;;;;;-3.97;70.75;96293.06;1716595;84;20236;-67
2021/03/26 04:21:28;;;;;;;;;;;;;;;-3.98;71.99;96296.84;1734243;83;20167;-70
2021/03/26 04:24:21;;;;;;;;;;;;;;;-4.07;71.63;96293.44;1733885;83;20159;-66
2021/03/26 04:27:09;;;;;;;;;;;;;;;-4.23;72.94;96290.52;1679395;83;20139;-64
2021/03/26 04:29:47;;;;;;;;;;;;;;;-4.09;72.06;96296.75;1732433;83;20140;-67
2021/03/26 04:32:19;;;;;;;;;;;;;;;-4.08;71.67;96295.55;1733356;83;20135;-67
2021/03/26 04:34:47;;;;;;;;;;;;;;;-4.03;71.89;96296.65;1705681;83;20139;-66
2021/03/26 04:37:20;;;;;;;;;;;;;;;-3.96;72.02;96293.53;1734185;83;20152;-67
2021/03/26 04:40:08;;;;;;;;;;;;;;;-4.12;73.00;96293.62;1734535;83;20148;-67
2021/03/26 04:42:49;;;;;;;;;;;;;;;-4.12;72.91;96295.31;1734188;83;20147;-67
2021/03/26 04:45:33;;;;;;;;;;;;;;;-4.16;72.55;96302.91;1734398;83;20144;-66
2021/03/26 04:48:12;;;;;;;;;;;;;;;-4.11;72.41;96309.55;1733438;83;20138;-67
2021/03/26 04:51:37;;;;;;;;;;;;;;;-4.09;73.45;96307.94;1725335;82;20140;-67
2021/03/26 04:54:43;;;;;;;;;;;;;;;-3.85;73.54;96317.69;1708628;83;20144;-67
2021/03/26 04:57:19;;;;;;;;;;;;;;;-3.75;73.23;96319.89;1691727;83;20180;-67
2021/03/26 05:00:08;;;;;;;;;;;;;;;-3.77;72.19;96319.80;1699028;84;20132;-67
2021/03/26 05:02:43;;;;;;;;;;;;;;;-3.78;72.30;96323.20;1717960;84;20140;-67
2021/03/26 05:05:15;;;;;;;;;;;;;;;-3.73;71.90;96320.82;1718899;84;20141;-67
2021/03/26 05:07:46;;;;;;;;;;;;;;;-3.74;72.79;96330.67;1716632;81;20157;-66
2021/03/26 05:10:17;;;;;;;;;;;;;;;-3.72;74.14;96328.64;1718959;84;20405;-66
2021/03/26 05:12:49;;;;;;;;;;;;;;;-3.63;74.02;96332.05;1719447;81;20394;-66
2021/03/26 05:15:34;;;;;;;;;;;;;;;-3.54;74.36;96331.62;1720400;81;20129;-66
2021/03/26 05:18:09;;;;;;;;;;;;;;;-3.37;73.70;96329.83;1719965;82;20150;-67
2021/03/26 05:21:00;;;;;;;;;;;;;;;-3.17;73.04;96332.05;1718768;84;20144;-67
2021/03/26 05:23:42;;;;;;;;;;;;;;;-2.98;72.77;96324.71;1719013;83;20144;-66
2021/03/26 05:26:12;;;;;;;;;;;;;;;-2.80;71.98;96330.69;1725975;83;20149;-67
2021/03/26 05:28:50;;;;;;;;;;;;;;;-2.67;71.14;96335.59;1699280;84;20149;-67
2021/03/26 05:31:37;;;;;;;;;;;;;;;-2.55;70.67;96331.77;1694779;84;20129;-67
2021/03/26 05:34:19;;;;;;;;;;;;;;;-2.45;70.67;96337.39;1718810;84;20136;-67
2021/03/26 05:36:51;;;;;;;;;;;;;;;-2.32;70.04;96336.63;1716623;83;20233;-63
2021/03/26 05:39:37;;;;;;;;;;;;;;;-2.16;70.82;96342.94;1706504;83;20148;-66
2021/03/26 05:42:31;;;;;;;;;;;;;;;-2.12;71.12;96342.64;1660663;86;20206;-63
2021/03/26 05:45:36;;;;;;;;;;;;;;;-1.93;70.89;96342.59;1682192;85;20129;-69
2021/03/26 05:48:31;;;;;;;;;;;;;;;-1.79;71.08;96344.44;1687245;85;20145;-62
2021/03/26 05:51:07;;;;;;;;;;;;;;;-1.72;71.24;96344.30;1704198;84;20145;-65
2021/03/26 05:53:48;;;;;;;;;;;;;;;-1.62;71.09;96342.13;1696581;85;20430;-64
2021/03/26 05:56:36;;;;;;;;;;;;;;;-1.42;70.81;96348.52;1709603;84;20137;-66
2021/03/26 05:59:28;;;;;;;;;;;;;;;-1.31;70.33;96348.55;1693831;84;20426;-66
2021/03/26 06:02:20;;;;;;;;;;;;;;;-1.22;70.08;96347.59;1709664;84;20136;-68
2021/03/26 06:05:11;;;;;;;;;;;;;;;-1.12;70.00;96345.81;1653423;85;20163;-64
2021/03/26 06:08:10;;;;;;;;;;;;;;;-1.03;69.87;96354.75;1681451;85;20151;-64
2021/03/26 06:11:09;;;;;;;;;;;;;;;-0.99;69.66;96355.35;1658821;85;20405;-67
2021/03/26 06:14:13;;;;;;;;;;;;;;;-0.89;69.52;96353.58;1680753;85;20148;-66
2021/03/26 06:17:14;;;;;;;;;;;;;;;-0.63;69.22;96355.86;1681317;85;20160;-67
2021/03/26 06:20:26;;;;;;;;;;;;;;;-0.33;68.93;96359.06;1621229;87;20173;-62
2021/03/26 06:23:33;;;;;;;;;;;;;;;-0.12;68.39;96355.06;1679688;85;20131;-60
2021/03/26 06:26:39;;;;;;;;;;;;;;;0.11;68.40;96358.02;1699026;84;20157;-60
2021/03/26 06:29:20;;;;;;;;;;;;;;;0.33;67.43;96354.86;1709816;84;20145;-61
2021/03/26 06:31:57;;;;;;;;;;;;;;;0.53;66.47;96355.48;1709883;84;20148;-61
2021/03/26 06:34:52;;;;;;;;;;;;;;;0.70;66.13;96346.94;1689329;84;20173;-60
2021/03/26 06:37:56;;;;;;;;;;;;;;;0.86;64.95;96351.36;1709179;84;20403;-60
2021/03/26 06:40:52;;;;;;;;;;;;;;;1.05;65.25;96345.41;1740835;82;20153;-61
2021/03/26 06:43:35;;;;;;;;;;;;;;;1.24;64.40;96339.94;1730841;83;20163;-59
2021/03/26 06:46:10;;;;;;;;;;;;;;;1.40;63.62;96339.08;1730560;83;20574;-60
2021/03/26 06:49:07;;;;;;;;;;;;;;;1.56;63.86;96333.88;1729874;83;20140;-60
2021/03/26 06:51:53;;;;;;;;;;;;;;;1.73;63.82;96350.84;1730383;83;20124;-60
2021/03/26 06:54:33;;;;;;;;;;;;;;;1.92;63.19;96345.73;1718917;83;20173;-60
2021/03/26 06:57:07;;;;;;;;;;;;;;;2.11;62.39;96346.66;1702441;84;20148;-58
2021/03/26 06:59:53;;;;;;;;;;;;;;;2.24;61.40;96341.34;1724048;83;20133;-61
2021/03/26 07:02:44;;;;;;;;;;;;;;;2.37;60.08;96339.53;1725942;83;20137;-59
2021/03/26 07:05:16;;;;;;;;;;;;;;;2.53;60.06;96343.81;1725846;83;20132;-60
2021/03/26 07:08:00;;;;;;;;;;;;;;;2.65;59.51;96336.73;1725749;83;20167;-61
2021/03/26 07:10:41;;;;;;;;;;;;;;;2.73;57.96;96335.17;1726780;83;20128;-60
2021/03/26 07:13:30;;;;;;;;;;;;;;;2.85;58.21;96332.86;1726800;82;20125;-61
2021/03/26 07:16:05;;;;;;;;;;;;;;;2.93;56.76;96330.00;1717677;84;20140;-61
2021/03/26 07:19:08;;;;;;;;;;;;;;;3.09;55.99;96331.64;1717549;84;20137;-60
2021/03/26 07:21:42;;;;;;;;;;;;;;;3.20;55.16;96332.34;1717041;83;20176;-60
2021/03/26 07:24:28;;;;;;;;;;;;;;;3.30;53.32;96337.73;1717095;83;20140;-59
2021/03/26 07:27:26;;;;;;;;;;;;;;;3.41;53.53;96335.82;1717582;83;20192;-60
2021/03/26 07:30:13;;;;;;;;;;;;;;;3.56;53.41;96338.30;1726473;83;20493;-61
2021/03/26 07:33:05;;;;;;;;;;;;;;;3.75;53.24;96341.71;1625532;88;20220;-61
2021/03/26 07:35:48;;;;;;;;;;;;;;;3.96;53.70;96340.39;1703291;84;20438;-61
2021/03/26 07:38:37;;;;;;;;;;;;;;;4.16;53.25;96340.33;1714573;83;20187;-61
2021/03/26 07:41:23;;;;;;;;;;;;;;;4.36;52.48;96339.78;1730479;83;20416;-61
2021/03/26 07:44:21;;;;;;;;;;;;;;;4.55;53.39;96336.64;1730538;82;20188;-60
2021/03/26 07:46:56;;;;;;;;;;;;;;;4.74;53.40;96338.70;1730652;83;20122;-61
2021/03/26 07:49:45;;;;;;;;;;;;;;;4.87;52.24;96334.55;1707186;84;20233;-61
2021/03/26 07:52:29;;;;;;;;;;;;;;;5.01;53.82;96337.35;1715936;84;20156;-61
2021/03/26 07:55:21;;;;;;;;;;;;;;;5.12;52.14;96346.69;1710409;84;20127;-60
2021/03/26 07:58:07;;;;;;;;;;;;;;;5.24;52.81;96343.34;1745836;82;20424;-61
2021/03/26 08:00:58;;;;;;;;;;;;;;;5.38;53.22;96347.05;1743046;82;20495;-60
2021/03/26 08:03:44;;;;;;;;;;;;;;;5.53;52.54;96349.86;1745582;81;20543;-60
2021/03/26 08:06:48;;;;;;;;;;;;;;;5.68;51.42;96349.18;1745156;82;20137;-60
2021/03/26 08:09:22;;;;;;;;;;;;;;;5.82;51.68;96355.88;1745954;82;20165;-60
2021/03/26 08:12:22;;;;;;;;;;;;;;;6.00;51.98;96353.97;1726843;82;20151;-61
2021/03/26 08:15:02;;;;;;;;;;;;;;;6.14;51.00;96364.59;1729709;82;20137;-60
2021/03/26 08:18:02;;;;;;;;;;;;;;;6.27;52.09;96356.89;1745739;82;20225;-60
2021/03/26 08:20:38;;;;;;;;;;;;;;;6.48;52.20;96360.58;1745821;82;20141;-62
2021/03/26 08:23:15;;;;;;;;;;;;;;;6.61;50.60;96368.13;1745742;82;20170;-62
2021/03/26 08:25:46;;;;;;;;;;;;;;;6.71;49.29;96362.09;1745936;82;20126;-60
2021/03/26 08:28:29;;;;;;;;;;;;;;;6.69;47.36;96369.07;1745278;82;20241;-60
2021/03/26 08:31:06;;;;;;;;;;;;;;;6.77;47.80;96368.70;1745859;81;20147;-58
2021/03/26 08:33:54;;;;;;;;;;;;;;;6.77;46.67;96373.94;1738757;82;20137;-59
2021/03/26 08:36:37;;;;;;;;;;;;;;;6.88;47.14;96374.06;1745622;81;20237;-61
2021/03/26 08:39:38;;;;;;;;;;;;;;;6.96;45.79;96374.98;1745713;82;20233;-61
2021/03/26 08:42:12;;;;;;;;;;;;;;;6.89;45.25;96375.36;1745487;82;20269;-62
2021/03/26 08:44:40;;;;;;;;;;;;;;;7.09;46.19;96375.96;1745719;82;20162;-62
2021/03/26 08:47:17;;;;;;;;;;;;;;;7.22;45.26;96379.55;1745601;82;20130;-61
2021/03/26 08:49:54;;;;;;;;;;;;;;;7.21;44.62;96384.37;1745628;81;20249;-58
2021/03/26 08:52:28;;;;;;;;;;;;;;;7.35;45.97;96378.31;1771183;81;20138;-59
2021/03/26 08:55:32;;;;;;;;;;;;;;;7.42;45.59;96383.18;1771310;81;20153;-60
2021/03/26 08:58:18;;;;;;;;;;;;;;;7.43;44.24;96384.92;1735963;81;20142;-61
2021/03/26 09:01:07;;;;;;;;;;;;;;;7.57;44.50;96385.02;1721771;83;20150;-57
2021/03/26 09:03:41;;;;;;;;;;;;;;;7.65;44.81;96385.94;1708444;84;20124;-57
2021/03/26 09:06:31;;;;;;;;;;;;;;;7.73;44.45;96382.03;1720993;83;20150;-57
2021/03/26 09:09:02;;;;;;;;;;;;;;;7.86;44.21;96390.45;1737918;82;20133;-57
2021/03/26 09:11:46;;;;;;;;;;;;;;;8.09;45.12;96387.91;1737671;83;20161;-57
2021/03/26 09:14:46;;;;;;;;;;;;;;;8.22;44.87;96386.20;1737743;82;20138;-57
2021/03/26 09:17:32;;;;;;;;;;;;;;;8.43;44.70;96387.59;1737668;83;20122;-59
2021/03/26 09:20:20;;;;;;;;;;;;;;;8.64;43.92;96381.93;1709074;83;20165;-60
2021/03/26 09:23:24;;;;;;;;;;;;;;;8.82;44.34;96387.65;1708272;84;20134;-58
2021/03/26 09:25:55;;;;;;;;;;;;;;;8.83;45.27;96390.30;1708459;84;20415;-60
2021/03/26 09:28:29;;;;;;;;;;;;;;;8.72;42.17;96391.15;1707996;84;20142;-58
2021/03/26 09:31:09;;;;;;;;;;;;;;;8.41;42.58;96398.54;1708270;84;20126;-59
2021/03/26 09:33:39;;;;;;;;;;;;;;;8.19;44.07;96406.78;1708359;84;20130;-59
2021/03/26 09:36:12;;;;;;;;;;;;;;;8.37;42.42;96398.52;1706321;84;20149;-59
2021/03/26 09:38:43;;;;;;;;;;;;;;;8.37;41.73;96394.58;1707885;84;20149;-59
2021/03/26 09:44:25;;;;;;;;;;;;;;;8.51;43.23;96392.00;1851730;76;20446;-62
2021/03/26 09:47:17;;;;;;;;;;;;;;;8.73;44.72;96388.98;1863162;77;20135;-59
2021/03/26 09:49:52;;;;;;;;;;;;;;;9.18;44.18;96390.75;1863175;77;20131;-60
2021/03/26 09:52:37;;;;;;;;;;;;;;;9.39;41.30;96387.21;1862978;77;20463;-60
2021/03/26 09:55:12;;;;;;;;;;;;;;;9.26;41.34;96389.42;1847047;77;20135;-59
2021/03/26 09:57:53;;;;;;;;;;;;;;;9.23;41.29;96381.53;1832608;78;20238;-58
2021/03/26 10:00:24;;;;;;;;;;;;;;;9.02;39.10;96391.61;1832452;78;20491;-58
2021/03/26 10:03:15;;;;;;;;;;;;;;;8.98;41.71;96389.88;1829909;78;20116;-59
2021/03/26 10:05:52;;;;;;;;;;;;;;;9.09;39.70;96384.16;1829390;78;20129;-58
2021/03/26 10:11:34;;;;;;;;;;;;;;;9.31;39.61;96381.95;1795121;80;20130;-58
2021/03/26 10:14:10;;;;;;;;;;;;;;;9.26;40.62;96382.40;1794985;80;20183;-58
2021/03/26 10:16:41;;;;;;;;;;;;;;;9.28;40.02;96375.38;1799378;78;20160;-58
2021/03/26 10:19:13;;;;;;;;;;;;;;;9.38;38.48;96377.57;1829557;78;20165;-58
2021/03/26 10:21:49;;;;;;;;;;;;;;;9.38;39.31;96380.20;1829752;78;20120;-59
2021/03/26 10:24:34;;;;;;;;;;;;;;;9.25;39.51;96381.11;1829194;78;20213;-58
2021/03/26 10:27:06;;;;;;;;;;;;;;;9.28;39.29;96380.65;1829673;78;20156;-58
2021/03/26 10:29:51;;;;;;;;;;;;;;;9.40;40.98;96373.19;1825081;78;20137;-58
2021/03/26 10:32:25;;;;;;;;;;;;;;;9.73;40.07;96376.62;1829671;78;20251;-58
2021/03/26 10:34:54;;;;;;;;;;;;;;;9.89;39.42;96370.41;1829449;78;20117;-59
2021/03/26 10:37:31;;;;;;;;;;;;;;;9.78;37.44;96374.85;1829385;78;20405;-58
2021/03/26 10:40:21;;;;;;;;;;;;;;;9.93;40.10;96375.25;1829631;78;20137;-58
2021/03/26 10:43:12;;;;;;;;;;;;;;;10.08;37.72;96375.19;1824761;78;20133;-58
2021/03/26 10:46:07;;;;;;;;;;;;;;;10.12;39.87;96364.17;1818210;79;20224;-59
2021/03/26 10:48:42;;;;;;;;;;;;;;;10.30;39.70;96365.42;1816830;79;20220;-59
2021/03/26 10:51:33;;;;;;;;;;;;;;;10.46;39.61;96365.33;1818228;79;20125;-59
2021/03/26 10:54:07;;;;;;;;;;;;;;;10.35;35.76;96361.45;1817902;79;20130;-59
2021/03/26 10:56:38;;;;;;;;;;;;;;;10.40;37.95;96362.30;1817750;79;20435;-59
2021/03/26 10:59:09;;;;;;;;;;;;;;;10.46;36.08;96369.30;1817625;79;20392;-58
2021/03/26 11:01:39;;;;;;;;;;;;;;;10.35;35.71;96357.48;1816839;79;20141;-59
2021/03/26 11:04:32;;;;;;;;;;;;;;;10.50;38.30;96360.03;1817769;79;20130;-58
2021/03/26 11:07:06;;;;;;;;;;;;;;;10.78;37.63;96347.52;1816167;79;20187;-59
2021/03/26 11:09:45;;;;;;;;;;;;;;;11.08;35.63;96354.78;1817546;79;20141;-58
2021/03/26 11:12:25;;;;;;;;;;;;;;;11.45;35.22;96353.14;1817285;79;20145;-59
2021/03/26 11:15:05;;;;;;;;;;;;;;;12.04;34.36;96359.55;1817649;79;20395;-59
2021/03/26 11:17:51;;;;;;;;;;;;;;;12.49;34.51;96349.27;1817785;79;20427;-59
2021/03/26 11:20:28;;;;;;;;;;;;;;;12.97;32.61;96341.94;1817710;79;20117;-58
2021/03/26 11:23:03;;;;;;;;;;;;;;;12.97;29.79;96336.64;1817759;79;20228;-59
2021/03/26 11:25:34;;;;;;;;;;;;;;;13.10;30.57;96328.94;1817808;79;20118;-59
2021/03/26 11:28:05;;;;;;;;;;;;;;;13.32;30.73;96321.97;1817734;79;20141;-59
2021/03/26 11:30:42;;;;;;;;;;;;;;;13.55;28.67;96334.34;1817535;79;20136;-59
2021/03/26 11:33:15;;;;;;;;;;;;;;;13.72;28.22;96321.23;1817612;79;20181;-59
2021/03/26 11:35:46;;;;;;;;;;;;;;;14.00;30.25;96319.77;1817803;79;20132;-59
2021/03/26 11:38:28;;;;;;;;;;;;;;;13.82;29.40;96320.15;1817529;79;20442;-59
2021/03/26 11:41:10;;;;;;;;;;;;;;;14.13;28.23;96317.73;1810043;79;20451;-59
2021/03/26 11:43:49;;;;;;;;;;;;;;;14.43;28.65;96307.37;1817392;79;20133;-59
2021/03/26 11:46:20;;;;;;;;;;;;;;;14.82;28.70;96306.95;1817718;79;20130;-59
2021/03/26 11:48:59;;;;;;;;;;;;;;;15.35;29.13;96309.19;1817624;79;20431;-59
2021/03/26 11:51:48;;;;;;;;;;;;;;;15.28;25.61;96308.92;1795455;79;20130;-59
2021/03/26 11:54:37;;;;;;;;;;;;;;;15.74;26.53;96307.73;1817704;79;20379;-59
2021/03/26 11:57:33;;;;;;;;;;;;;;;15.49;25.16;96306.15;1817335;77;20141;-59
2021/03/26 12:00:16;;;;;;;;;;;;;;;15.69;25.87;96303.86;1817696;79;20418;-59
2021/03/26 12:02:53;;;;;;;;;;;;;;;15.62;25.08;96297.38;1817815;79;20133;-59
2021/03/26 12:06:00;;;;;;;;;;;;;;;15.79;26.97;96302.69;1778939;81;20151;-59
2021/03/26 12:08:54;;;;;;;;;;;;;;;15.82;25.83;96296.41;1779381;81;20135;-59
2021/03/26 12:11:34;;;;;;;;;;;;;;;15.83;25.24;96297.30;1779382;80;20146;-59
2021/03/26 12:14:14;;;;;;;;;;;;;;;16.12;26.06;96284.47;1779788;81;20409;-59
2021/03/26 12:17:02;;;;;;;;;;;;;;;16.31;26.37;96284.81;1779521;81;20135;-59
2021/03/26 12:19:35;;;;;;;;;;;;;;;16.34;26.02;96284.72;1779388;81;20162;-59
2021/03/26 12:22:23;;;;;;;;;;;;;;;16.97;26.64;96282.77;1779717;81;20151;-59
2021/03/26 12:25:04;;;;;;;;;;;;;;;17.00;23.79;96282.66;1779589;80;20142;-59
2021/03/26 12:27:47;;;;;;;;;;;;;;;16.99;25.34;96274.27;1779469;81;20150;-59
2021/03/26 12:30:44;;;;;;;;;;;;;;;17.51;25.03;96272.03;1779462;81;20170;-59
2021/03/26 12:33:20;;;;;;;;;;;;;;;17.92;23.34;96269.70;1778278;81;20166;-59
2021/03/26 12:35:57;;;;;;;;;;;;;;;17.73;23.39;96269.45;1779305;80;20154;-59
2021/03/26 12:38:30;;;;;;;;;;;;;;;17.84;23.46;96266.89;1777152;81;20166;-59
2021/03/26 12:41:01;;;;;;;;;;;;;;;17.83;24.11;96261.16;1778922;80;20468;-59
2021/03/26 12:43:47;;;;;;;;;;;;;;;18.14;22.19;96259.10;1779414;80;20158;-60
2021/03/26 12:46:40;;;;;;;;;;;;;;;18.28;21.94;96255.02;1779482;81;20134;-59
2021/03/26 12:49:09;;;;;;;;;;;;;;;18.26;22.53;96256.88;1778444;80;20436;-60
2021/03/26 12:51:40;;;;;;;;;;;;;;;18.33;23.95;96251.23;1759560;81;20158;-59
2021/03/26 12:54:20;;;;;;;;;;;;;;;18.65;22.10;96251.78;1779279;81;20159;-59
2021/03/26 12:56:51;;;;;;;;;;;;;;;18.82;21.83;96251.12;1779257;80;20158;-59
2021/03/26 12:59:24;;;;;;;;;;;;;;;19.02;21.63;96251.64;1779737;80;20163;-60
2021/03/26 13:02:04;;;;;;;;;;;;;;;19.16;21.37;96247.06;1779607;80;20167;-59
2021/03/26 13:04:55;;;;;;;;;;;;;;;19.38;20.27;96249.71;1779070;81;20162;-59
2021/03/26 13:07:57;;;;;;;;;;;;;;;19.65;21.11;96238.25;1779175;80;20170;-59
2021/03/26 13:10:28;;;;;;;;;;;;;;;19.21;21.76;96251.76;1779607;80;20155;-60
2021/03/26 13:13:04;;;;;;;;;;;;;;;19.60;20.46;96238.45;1752431;81;20420;-59
2021/03/26 13:15:33;;;;;;;;;;;;;;;19.66;21.11;96238.66;1779073;80;20154;-59
2021/03/26 13:18:06;;;;;;;;;;;;;;;18.80;20.47;96242.31;1779626;81;20155;-59
2021/03/26 13:20:55;;;;;;;;;;;;;;;19.02;20.10;96247.62;1778754;80;20138;-60
2021/03/26 13:23:26;;;;;;;;;;;;;;;19.20;20.96;96241.53;1779066;80;20151;-60
2021/03/26 13:26:00;;;;;;;;;;;;;;;19.48;21.42;96243.02;1779621;81;20206;-60
2021/03/26 13:28:39;;;;;;;;;;;;;;;19.61;21.03;96233.51;1779317;80;20440;-60
2021/03/26 13:31:16;;;;;;;;;;;;;;;19.90;20.04;96227.34;1779657;80;20157;-60
2021/03/26 13:33:53;;;;;;;;;;;;;;;19.96;21.87;96232.88;1779610;81;20425;-60
2021/03/26 13:36:26;;;;;;;;;;;;;;;19.79;20.31;96231.85;1779263;80;20181;-60
2021/03/26 13:39:00;;;;;;;;;;;;;;;19.66;20.08;96226.62;1779616;81;20147;-59
2021/03/26 13:41:43;;;;;;;;;;;;;;;19.92;20.42;96221.93;1779684;81;20143;-60
2021/03/26 13:44:18;;;;;;;;;;;;;;;20.21;19.66;96226.83;1779345;80;20147;-59
2021/03/26 13:46:48;;;;;;;;;;;;;;;19.95;20.24;96225.33;1779624;81;20134;-59
2021/03/26 13:49:21;;;;;;;;;;;;;;;20.39;19.68;96220.20;1778957;80;20139;-59
2021/03/26 13:51:52;;;;;;;;;;;;;;;20.30;19.59;96221.48;1778872;80;20169;-59
2021/03/26 13:54:38;;;;;;;;;;;;;;;20.14;19.39;96220.01;1779203;80;20194;-59
2021/03/26 13:57:18;;;;;;;;;;;;;;;19.80;19.17;96217.52;1779364;80;20417;-59
2021/03/26 13:59:50;;;;;;;;;;;;;;;19.93;20.13;96220.50;1779618;80;20162;-60
2021/03/26 14:02:24;;;;;;;;;;;;;;;19.70;19.55;96223.36;1779376;80;20155;-60